createdAt,value
2017-11-10T00:00:29.150Z,99.99
2017-11-10T00:01:29.140Z,99.99
2017-11-10T00:02:29.155Z,99.99
2017-11-10T00:03:29.121Z,99.99
2017-11-10T00:04:29.115Z,99.99
2017-11-10T00:05:28.779Z,99.99
2017-11-10T00:06:29.097Z,99.99
2017-11-10T00:07:29.096Z,99.99
2017-11-10T00:08:29.075Z,99.99
2017-11-10T00:09:29.169Z,99.99
2017-11-10T00:10:29.063Z,99.99
2017-11-10T00:11:29.053Z,99.99
2017-11-10T00:12:29.041Z,99.99
2017-11-10T00:13:28.708Z,99.99
2017-11-10T00:14:29.024Z,99.99
2017-11-10T00:15:29.020Z,99.99
2017-11-10T00:16:29.008Z,99.99
2017-11-10T00:17:29.001Z,99.99
2017-11-10T00:18:29.001Z,99.99
2017-11-10T00:19:28.981Z,99.99
2017-11-10T00:20:28.647Z,99.99
2017-11-10T00:21:28.960Z,99.99
2017-11-10T00:22:28.955Z,99.99
2017-11-10T00:23:28.944Z,99.99
2017-11-10T00:24:28.934Z,99.99
2017-11-10T00:25:28.930Z,99.99
2017-11-10T00:26:28.915Z,99.99
2017-11-10T00:27:28.909Z,99.99
2017-11-10T00:28:28.903Z,99.99
2017-11-10T00:29:28.567Z,99.99
2017-11-10T00:30:28.882Z,99.99
2017-11-10T00:31:28.877Z,99.99
2017-11-10T00:32:28.881Z,99.99
2017-11-10T00:33:28.533Z,99.99
2017-11-10T00:34:28.847Z,99.99
2017-11-10T00:35:28.843Z,99.99
2017-11-10T00:36:28.839Z,99.99
2017-11-10T00:37:28.494Z,99.99
2017-11-10T00:38:28.486Z,99.99
2017-11-10T00:39:28.809Z,99.99
2017-11-10T00:40:28.794Z,99.99
2017-11-10T00:41:28.805Z,99.99
2017-11-10T00:42:28.775Z,99.99
2017-11-10T00:43:28.448Z,99.99
2017-11-10T00:44:28.909Z,99.99
2017-11-10T00:45:28.749Z,99.99
2017-11-10T00:46:28.752Z,99.99
2017-11-10T00:47:28.733Z,99.99
2017-11-10T00:48:28.725Z,99.99
2017-11-10T00:49:28.713Z,99.99
2017-11-10T00:50:28.706Z,99.99
2017-11-10T00:51:28.372Z,99.99
2017-11-10T00:52:28.684Z,99.99
2017-11-10T00:53:28.678Z,99.99
2017-11-10T00:54:28.668Z,99.99
2017-11-10T00:55:28.665Z,99.99
2017-11-10T00:56:28.651Z,99.99
2017-11-10T00:57:28.321Z,99.99
2017-11-10T00:58:28.632Z,99.99
2017-11-10T00:59:28.628Z,99.99
2017-11-10T01:00:28.621Z,99.99
2017-11-10T01:01:28.603Z,99.99
2017-11-10T01:02:28.724Z,99.99
2017-11-10T01:03:28.587Z,99.99
2017-11-10T01:04:28.582Z,99.99
2017-11-10T01:05:28.571Z,99.99
2017-11-10T01:06:28.236Z,99.99
2017-11-10T01:07:28.554Z,99.99
2017-11-10T01:08:28.543Z,99.99
2017-11-10T01:09:28.535Z,99.99
2017-11-10T01:10:28.525Z,99.99
2017-11-10T01:11:28.615Z,99.99
2017-11-10T01:12:28.508Z,99.99
2017-11-10T01:13:28.178Z,99.99
2017-11-10T01:14:28.491Z,99.99
2017-11-10T01:15:28.482Z,99.99
2017-11-10T01:16:28.471Z,99.99
2017-11-10T01:17:28.463Z,99.99
2017-11-10T01:18:28.454Z,99.99
2017-11-10T01:19:28.445Z,99.99
2017-11-10T01:20:28.448Z,99.99
2017-11-10T01:21:28.423Z,99.99
2017-11-10T01:22:28.418Z,99.99
2017-11-10T01:23:28.086Z,99.99
2017-11-10T01:24:28.401Z,99.99
2017-11-10T01:25:28.404Z,99.99
2017-11-10T01:26:28.386Z,99.99
2017-11-10T01:27:28.373Z,99.99
2017-11-10T01:28:28.364Z,99.99
2017-11-10T01:29:28.355Z,99.99
2017-11-10T01:30:28.347Z,99.99
2017-11-10T01:31:28.339Z,99.99
2017-11-10T01:32:28.334Z,99.99
2017-11-10T01:33:28.319Z,99.99
2017-11-10T01:34:28.085Z,99.99
2017-11-10T01:35:28.301Z,99.99
2017-11-10T01:36:28.292Z,99.99
2017-11-10T01:37:28.284Z,99.99
2017-11-10T01:38:28.277Z,99.99
2017-11-10T01:39:28.264Z,99.99
2017-11-10T01:40:28.266Z,99.99
2017-11-10T01:41:28.247Z,99.99
2017-11-10T01:42:28.391Z,99.99
2017-11-10T01:43:28.228Z,99.99
2017-11-10T01:44:28.230Z,99.99
2017-11-10T01:45:28.212Z,99.99
2017-11-10T01:46:28.205Z,99.99
2017-11-10T01:47:28.192Z,99.99
2017-11-10T01:48:28.184Z,99.99
2017-11-10T01:49:28.176Z,99.99
2017-11-10T01:50:28.165Z,99.99
2017-11-10T01:51:28.161Z,99.99
2017-11-10T01:52:28.147Z,99.99
2017-11-10T01:53:28.143Z,99.99
2017-11-10T01:54:28.127Z,99.99
2017-11-10T01:55:28.121Z,99.99
2017-11-10T01:56:27.787Z,99.99
2017-11-10T01:57:28.202Z,99.99
2017-11-10T01:58:28.194Z,99.99
2017-11-10T01:59:28.098Z,99.99
2017-11-10T02:00:28.076Z,99.99
2017-11-10T02:01:27.740Z,99.99
2017-11-10T02:02:28.056Z,99.99
2017-11-10T02:03:27.724Z,99.99
2017-11-10T02:04:28.040Z,99.99
2017-11-10T02:05:27.704Z,99.99
2017-11-10T02:06:28.020Z,99.99
2017-11-10T02:07:28.013Z,99.99
2017-11-10T02:08:28.004Z,99.99
2017-11-10T02:09:27.669Z,99.99
2017-11-10T02:10:27.660Z,99.99
2017-11-10T02:11:27.992Z,99.99
2017-11-10T02:12:27.968Z,99.99
2017-11-10T02:13:27.632Z,99.99
2017-11-10T02:14:27.626Z,99.99
2017-11-10T02:15:27.941Z,99.99
2017-11-10T02:16:27.604Z,99.99
2017-11-10T02:17:27.596Z,99.99
2017-11-10T02:18:27.915Z,99.99
2017-11-10T02:19:27.905Z,99.99
2017-11-10T02:20:27.896Z,99.99
2017-11-10T02:21:27.886Z,99.99
2017-11-10T02:22:27.984Z,99.99
2017-11-10T02:23:27.876Z,99.99
2017-11-10T02:24:27.864Z,99.99
2017-11-10T02:25:27.847Z,99.99
2017-11-10T02:26:27.962Z,99.99
2017-11-10T02:27:27.505Z,99.99
2017-11-10T02:28:27.496Z,99.99
2017-11-10T02:29:27.487Z,99.99
2017-11-10T02:30:27.824Z,99.99
2017-11-10T02:31:27.799Z,99.99
2017-11-10T02:32:27.788Z,99.99
2017-11-10T02:33:27.455Z,99.99
2017-11-10T02:34:27.772Z,99.99
2017-11-10T02:35:27.434Z,99.99
2017-11-10T02:36:27.753Z,99.99
2017-11-10T02:37:27.417Z,99.99
2017-11-10T02:38:27.732Z,99.99
2017-11-10T02:39:27.724Z,99.99
2017-11-10T02:40:27.721Z,99.99
2017-11-10T02:41:27.704Z,99.99
2017-11-10T02:42:27.699Z,99.99
2017-11-10T02:43:27.363Z,99.99
2017-11-10T02:44:27.679Z,99.99
2017-11-10T02:45:27.678Z,99.99
2017-11-10T02:46:27.663Z,99.99
2017-11-10T02:47:27.651Z,99.99
2017-11-10T02:48:27.319Z,99.99
2017-11-10T02:49:27.631Z,99.99
2017-11-10T02:50:27.630Z,99.99
2017-11-10T02:51:27.614Z,99.99
2017-11-10T02:52:27.606Z,99.99
2017-11-10T02:53:27.601Z,99.99
2017-11-10T02:54:27.263Z,99.99
2017-11-10T02:55:27.580Z,99.99
2017-11-10T02:56:27.583Z,99.99
2017-11-10T02:57:27.565Z,99.99
2017-11-10T02:58:27.555Z,99.99
2017-11-10T02:59:27.548Z,99.99
2017-11-10T03:00:27.208Z,99.99
2017-11-10T03:01:27.526Z,99.99
2017-11-10T03:02:27.190Z,99.99
2017-11-10T03:03:27.512Z,99.99
2017-11-10T03:04:27.499Z,99.99
2017-11-10T03:05:27.496Z,99.99
2017-11-10T03:06:27.153Z,99.99
2017-11-10T03:07:27.468Z,99.99
2017-11-10T03:08:27.464Z,99.99
2017-11-10T03:09:27.453Z,99.99
2017-11-10T03:10:27.442Z,99.99
2017-11-10T03:11:27.434Z,99.99
2017-11-10T03:12:27.425Z,99.99
2017-11-10T03:13:27.415Z,99.99
2017-11-10T03:14:27.416Z,99.99
2017-11-10T03:15:27.398Z,99.99
2017-11-10T03:16:27.388Z,99.99
2017-11-10T03:17:27.154Z,99.99
2017-11-10T03:18:27.372Z,99.99
2017-11-10T03:19:27.359Z,99.99
2017-11-10T03:20:27.352Z,99.99
2017-11-10T03:21:27.342Z,99.99
2017-11-10T03:22:27.109Z,99.99
2017-11-10T03:23:27.324Z,99.99
2017-11-10T03:24:27.316Z,99.99
2017-11-10T03:25:27.325Z,99.99
2017-11-10T03:26:27.297Z,99.99
2017-11-10T03:27:27.291Z,99.99
2017-11-10T03:28:27.280Z,99.99
2017-11-10T03:29:27.269Z,99.99
2017-11-10T03:30:26.949Z,99.99
2017-11-10T03:31:27.252Z,99.99
2017-11-10T03:32:27.245Z,99.99
2017-11-10T03:33:26.911Z,99.99
2017-11-10T03:34:27.225Z,99.99
2017-11-10T03:35:27.220Z,99.99
2017-11-10T03:36:27.208Z,99.99
2017-11-10T03:37:27.197Z,99.99
2017-11-10T03:38:27.217Z,99.99
2017-11-10T03:39:26.855Z,99.99
2017-11-10T03:40:27.168Z,99.99
2017-11-10T03:41:27.162Z,99.99
2017-11-10T03:42:27.255Z,99.99
2017-11-10T03:43:27.150Z,99.99
2017-11-10T03:44:26.809Z,99.99
2017-11-10T03:45:27.123Z,99.99
2017-11-10T03:46:27.116Z,99.99
2017-11-10T03:47:27.106Z,99.99
2017-11-10T03:48:27.098Z,99.99
2017-11-10T03:49:27.094Z,99.99
2017-11-10T03:50:27.081Z,99.99
2017-11-10T03:51:27.078Z,99.99
2017-11-10T03:52:27.059Z,99.99
2017-11-10T03:53:26.827Z,99.99
2017-11-10T03:54:27.041Z,99.99
2017-11-10T03:55:27.033Z,99.99
2017-11-10T03:56:27.029Z,99.99
2017-11-10T03:57:27.014Z,99.99
2017-11-10T03:58:27.114Z,99.99
2017-11-10T03:59:27.147Z,99.99
2017-11-10T04:00:26.991Z,99.99
2017-11-10T04:01:26.980Z,99.99
2017-11-10T04:02:26.644Z,99.99
2017-11-10T04:03:26.964Z,99.99
2017-11-10T04:04:26.952Z,99.99
2017-11-10T04:05:26.943Z,99.99
2017-11-10T04:06:27.033Z,99.99
2017-11-10T04:07:26.926Z,99.99
2017-11-10T04:08:26.930Z,99.99
2017-11-10T04:09:26.906Z,99.99
2017-11-10T04:10:26.905Z,99.99
2017-11-10T04:11:26.888Z,99.99
2017-11-10T04:12:26.978Z,99.99
2017-11-10T04:13:26.880Z,99.99
2017-11-10T04:14:26.535Z,99.99
2017-11-10T04:15:26.864Z,99.99
2017-11-10T04:16:26.943Z,99.99
2017-11-10T04:17:26.834Z,99.99
2017-11-10T04:18:26.825Z,99.99
2017-11-10T04:19:26.922Z,99.99
2017-11-10T04:20:26.822Z,99.99
2017-11-10T04:21:26.804Z,99.99
2017-11-10T04:22:26.806Z,99.99
2017-11-10T04:23:26.453Z,99.99
2017-11-10T04:24:26.772Z,99.99
2017-11-10T04:25:26.865Z,99.99
2017-11-10T04:26:26.428Z,99.99
2017-11-10T04:27:26.417Z,99.99
2017-11-10T04:28:26.735Z,99.99
2017-11-10T04:29:26.725Z,99.99
2017-11-10T04:30:26.719Z,99.99
2017-11-10T04:31:26.805Z,99.99
2017-11-10T04:32:26.700Z,99.99
2017-11-10T04:33:26.687Z,99.99
2017-11-10T04:34:26.681Z,99.99
2017-11-10T04:35:26.673Z,99.99
2017-11-10T04:36:26.768Z,99.99
2017-11-10T04:37:26.652Z,99.99
2017-11-10T04:38:26.657Z,99.99
2017-11-10T04:39:26.307Z,99.99
2017-11-10T04:40:26.627Z,99.99
2017-11-10T04:41:26.616Z,99.99
2017-11-10T04:42:26.617Z,99.99
2017-11-10T04:43:26.615Z,99.99
2017-11-10T04:44:26.587Z,99.99
2017-11-10T04:45:26.587Z,99.99
2017-11-10T04:46:26.573Z,99.99
2017-11-10T04:47:26.560Z,99.99
2017-11-10T04:48:26.553Z,99.99
2017-11-10T04:49:26.217Z,99.99
2017-11-10T04:50:26.534Z,99.99
2017-11-10T04:51:26.532Z,99.99
2017-11-10T04:52:26.667Z,99.99
2017-11-10T04:53:26.514Z,99.99
2017-11-10T04:54:26.498Z,99.99
2017-11-10T04:55:26.494Z,99.99
2017-11-10T04:56:26.509Z,99.99
2017-11-10T04:57:26.472Z,99.99
2017-11-10T04:58:26.136Z,99.99
2017-11-10T04:59:26.451Z,99.99
2017-11-10T05:00:26.488Z,99.99
2017-11-10T05:01:26.436Z,99.99
2017-11-10T05:02:26.429Z,99.99
2017-11-10T05:03:26.416Z,99.99
2017-11-10T05:04:26.421Z,99.99
2017-11-10T05:05:26.074Z,99.99
2017-11-10T05:06:26.386Z,99.99
2017-11-10T05:07:26.382Z,99.99
2017-11-10T05:08:26.053Z,99.99
2017-11-10T05:09:26.363Z,99.99
2017-11-10T05:10:26.352Z,99.99
2017-11-10T05:11:26.345Z,99.99
2017-11-10T05:12:26.345Z,99.99
2017-11-10T05:13:26.323Z,99.99
2017-11-10T05:14:26.314Z,99.99
2017-11-10T05:15:26.457Z,99.99
2017-11-10T05:16:26.297Z,99.99
2017-11-10T05:17:25.962Z,99.99
2017-11-10T05:18:26.322Z,99.99
2017-11-10T05:19:26.275Z,99.99
2017-11-10T05:20:25.935Z,99.99
2017-11-10T05:21:26.251Z,99.99
2017-11-10T05:22:26.238Z,99.99
2017-11-10T05:23:26.011Z,99.99
2017-11-10T05:24:26.234Z,99.99
2017-11-10T05:25:25.890Z,99.99
2017-11-10T05:26:26.207Z,99.99
2017-11-10T05:27:26.205Z,99.99
2017-11-10T05:28:25.860Z,99.99
2017-11-10T05:29:26.177Z,99.99
2017-11-10T05:30:26.170Z,99.69
2017-11-10T05:31:26.166Z,99.99
2017-11-10T05:32:25.826Z,99.99
2017-11-10T05:33:26.139Z,99.99
2017-11-10T05:34:26.135Z,99.99
2017-11-10T05:35:26.121Z,99.99
2017-11-10T05:36:25.791Z,99.99
2017-11-10T05:37:26.104Z,99.99
2017-11-10T05:38:26.108Z,99.78
2017-11-10T05:39:26.089Z,99.99
2017-11-10T05:40:26.074Z,99.99
2017-11-10T05:41:25.744Z,99.99
2017-11-10T05:42:25.738Z,99.99
2017-11-10T05:43:26.062Z,99.99
2017-11-10T05:44:26.046Z,99.99
2017-11-10T05:45:26.132Z,99.99
2017-11-10T05:46:26.024Z,99.99
2017-11-10T05:47:26.017Z,99.99
2017-11-10T05:48:26.004Z,99.99
2017-11-10T05:49:25.997Z,99.99
2017-11-10T05:50:25.986Z,99.99
2017-11-10T05:51:25.977Z,99.99
2017-11-10T05:52:25.967Z,99.99
2017-11-10T05:53:25.960Z,99.99
2017-11-10T05:54:25.951Z,99.99
2017-11-10T05:55:25.939Z,99.99
2017-11-10T05:56:25.940Z,99.99
2017-11-10T05:57:25.923Z,99.99
2017-11-10T05:58:25.913Z,99.99
2017-11-10T05:59:25.905Z,99.99
2017-11-10T06:00:25.567Z,99.99
2017-11-10T06:01:25.881Z,99.99
2017-11-10T06:02:25.875Z,99.99
2017-11-10T06:03:25.864Z,99.99
2017-11-10T06:04:25.853Z,99.99
2017-11-10T06:05:25.841Z,99.99
2017-11-10T06:06:25.832Z,99.99
2017-11-10T06:07:25.603Z,99.99
2017-11-10T06:08:25.916Z,99.99
2017-11-10T06:09:25.808Z,99.99
2017-11-10T06:10:25.807Z,99.99
2017-11-10T06:11:25.789Z,99.99
2017-11-10T06:12:25.778Z,99.99
2017-11-10T06:13:25.776Z,99.99
2017-11-10T06:14:25.759Z,99.99
2017-11-10T06:15:25.790Z,99.99
2017-11-10T06:16:25.759Z,99.99
2017-11-10T06:17:25.737Z,99.99
2017-11-10T06:18:25.826Z,99.99
2017-11-10T06:19:25.725Z,99.99
2017-11-10T06:20:25.710Z,99.99
2017-11-10T06:21:25.697Z,99.99
2017-11-10T06:22:25.365Z,99.69
2017-11-10T06:23:25.682Z,99.99
2017-11-10T06:24:25.668Z,99.99
2017-11-10T06:25:25.661Z,99.99
2017-11-10T06:26:25.655Z,99.97
2017-11-10T06:27:25.646Z,99.97
2017-11-10T06:28:25.736Z,99.59
2017-11-10T06:29:25.300Z,99.4
2017-11-10T06:30:25.750Z,99.99
2017-11-10T06:31:25.605Z,99.88
2017-11-10T06:32:25.597Z,99.88
2017-11-10T06:33:25.590Z,99.97
2017-11-10T06:34:25.589Z,99.97
2017-11-10T06:35:25.246Z,99.97
2017-11-10T06:36:25.237Z,99.59
2017-11-10T06:37:25.553Z,99.69
2017-11-10T06:38:25.548Z,99.59
2017-11-10T06:39:25.542Z,99.78
2017-11-10T06:40:25.532Z,99.78
2017-11-10T06:41:25.514Z,99.88
2017-11-10T06:42:25.181Z,99.97
2017-11-10T06:43:25.174Z,99.88
2017-11-10T06:44:25.487Z,99.69
2017-11-10T06:45:25.479Z,99.99
2017-11-10T06:46:25.465Z,99.69
2017-11-10T06:47:25.136Z,99.97
2017-11-10T06:48:25.125Z,99.99
2017-11-10T06:49:25.443Z,99.78
2017-11-10T06:50:25.432Z,99.99
2017-11-10T06:51:25.425Z,99.78
2017-11-10T06:52:25.418Z,99.3
2017-11-10T06:53:25.407Z,99.21
2017-11-10T06:54:25.397Z,99.35
2017-11-10T06:55:25.389Z,99.21
2017-11-10T06:56:25.382Z,99.5
2017-11-10T06:57:25.378Z,99.97
2017-11-10T06:58:25.359Z,99.4
2017-11-10T06:59:25.353Z,99.5
2017-11-10T07:00:25.343Z,99.11
2017-11-10T07:01:25.330Z,98.83
2017-11-10T07:02:25.322Z,98.64
2017-11-10T07:03:25.324Z,98.83
2017-11-10T07:04:25.305Z,98.64
2017-11-10T07:05:25.297Z,98.79
2017-11-10T07:06:25.288Z,98.93
2017-11-10T07:07:25.275Z,98.26
2017-11-10T07:08:25.268Z,98.26
2017-11-10T07:09:24.939Z,98.55
2017-11-10T07:10:25.265Z,98.26
2017-11-10T07:11:25.238Z,98.17
2017-11-10T07:12:25.234Z,97.97
2017-11-10T07:13:25.222Z,97.78
2017-11-10T07:14:25.215Z,97.97
2017-11-10T07:15:24.881Z,97.92
2017-11-10T07:16:25.201Z,97.55
2017-11-10T07:17:25.187Z,97.64
2017-11-10T07:18:25.179Z,97.55
2017-11-10T07:19:24.848Z,97.55
2017-11-10T07:20:25.158Z,97.83
2017-11-10T07:21:24.828Z,97.64
2017-11-10T07:22:25.248Z,97.88
2017-11-10T07:23:25.130Z,97.6
2017-11-10T07:24:25.121Z,97.17
2017-11-10T07:25:25.112Z,96.88
2017-11-10T07:26:24.783Z,96.98
2017-11-10T07:27:25.100Z,97.27
2017-11-10T07:28:25.091Z,96.79
2017-11-10T07:29:25.079Z,96.6
2017-11-10T07:30:25.082Z,96.69
2017-11-10T07:31:25.059Z,97.07
2017-11-10T07:32:25.057Z,96.03
2017-11-10T07:33:25.041Z,96.03
2017-11-10T07:34:24.709Z,96.31
2017-11-10T07:35:24.697Z,97.07
2017-11-10T07:36:25.017Z,96.98
2017-11-10T07:37:25.007Z,96.79
2017-11-10T07:38:25.010Z,96.88
2017-11-10T07:39:24.987Z,96.79
2017-11-10T07:40:24.980Z,96.79
2017-11-10T07:41:24.965Z,96.6
2017-11-10T07:42:24.963Z,96.31
2017-11-10T07:43:24.968Z,96.31
2017-11-10T07:44:24.945Z,96.22
2017-11-10T07:45:24.606Z,96.41
2017-11-10T07:46:24.919Z,96.22
2017-11-10T07:47:24.589Z,96.98
2017-11-10T07:48:24.904Z,97.07
2017-11-10T07:49:24.894Z,96.69
2017-11-10T07:50:24.899Z,96.5
2017-11-10T07:51:24.978Z,96.6
2017-11-10T07:52:24.873Z,96.41
2017-11-10T07:53:24.535Z,97.36
2017-11-10T07:54:24.862Z,97.07
2017-11-10T07:55:24.840Z,96.65
2017-11-10T07:56:24.831Z,96.6
2017-11-10T07:57:24.824Z,96.65
2017-11-10T07:58:24.810Z,96.41
2017-11-10T07:59:24.479Z,96.6
2017-11-10T08:00:24.795Z,95.89
2017-11-10T08:01:24.788Z,95.27
2017-11-10T08:02:24.776Z,95.08
2017-11-10T08:03:24.444Z,95.27
2017-11-10T08:04:24.759Z,94.89
2017-11-10T08:05:24.750Z,94.7
2017-11-10T08:06:24.740Z,93.75
2017-11-10T08:07:24.733Z,92.71
2017-11-10T08:08:24.721Z,92.9
2017-11-10T08:09:24.718Z,93.18
2017-11-10T08:10:24.701Z,92.9
2017-11-10T08:11:24.694Z,92.61
2017-11-10T08:12:24.845Z,92.9
2017-11-10T08:13:24.676Z,93.08
2017-11-10T08:14:24.666Z,93.27
2017-11-10T08:15:24.657Z,92.99
2017-11-10T08:16:24.648Z,93.56
2017-11-10T08:17:24.640Z,93.56
2017-11-10T08:18:24.306Z,93.65
2017-11-10T08:19:24.630Z,93.65
2017-11-10T08:20:24.615Z,93.37
2017-11-10T08:21:24.280Z,93.18
2017-11-10T08:22:24.590Z,92.51
2017-11-10T08:23:24.583Z,92.71
2017-11-10T08:24:24.576Z,92.99
2017-11-10T08:25:24.567Z,93.08
2017-11-10T08:26:24.558Z,92.99
2017-11-10T08:27:24.549Z,93.27
2017-11-10T08:28:24.538Z,93.08
2017-11-10T08:29:24.528Z,92.8
2017-11-10T08:30:24.537Z,92.71
2017-11-10T08:31:24.511Z,92.8
2017-11-10T08:32:24.604Z,92.61
2017-11-10T08:33:24.494Z,92.61
2017-11-10T08:34:24.486Z,93.18
2017-11-10T08:35:24.577Z,93.27
2017-11-10T08:36:24.138Z,93.27
2017-11-10T08:37:24.456Z,92.99
2017-11-10T08:38:24.442Z,92.61
2017-11-10T08:39:24.112Z,93.27
2017-11-10T08:40:24.101Z,92.71
2017-11-10T08:41:24.091Z,92.9
2017-11-10T08:42:24.415Z,92.99
2017-11-10T08:43:24.398Z,92.99
2017-11-10T08:44:24.396Z,92.8
2017-11-10T08:45:24.057Z,92.23
2017-11-10T08:46:24.369Z,92.04
2017-11-10T08:47:24.370Z,92.32
2017-11-10T08:48:24.355Z,92.42
2017-11-10T08:49:24.353Z,92.32
2017-11-10T08:50:24.332Z,92.32
2017-11-10T08:51:24.325Z,92.23
2017-11-10T08:52:24.319Z,92.04
2017-11-10T08:53:24.301Z,92.23
2017-11-10T08:54:23.972Z,91.85
2017-11-10T08:55:24.288Z,91.85
2017-11-10T08:56:24.279Z,91.66
2017-11-10T08:57:24.269Z,91.66
2017-11-10T08:58:24.266Z,92.04
2017-11-10T08:59:23.926Z,91.56
2017-11-10T09:00:24.240Z,91.66
2017-11-10T09:01:24.231Z,91.8
2017-11-10T09:02:24.220Z,91.09
2017-11-10T09:03:24.211Z,91.09
2017-11-10T09:04:23.883Z,91.75
2017-11-10T09:05:23.869Z,91.56
2017-11-10T09:06:24.280Z,91.28
2017-11-10T09:07:24.174Z,90.99
2017-11-10T09:08:23.840Z,91.09
2017-11-10T09:09:24.152Z,90.9
2017-11-10T09:10:24.154Z,90.9
2017-11-10T09:11:24.146Z,90.99
2017-11-10T09:12:24.138Z,90.9
2017-11-10T09:13:24.119Z,90.9
2017-11-10T09:14:24.256Z,90.61
2017-11-10T09:15:24.198Z,90.42
2017-11-10T09:16:24.088Z,90.23
2017-11-10T09:17:24.079Z,90.52
2017-11-10T09:18:24.085Z,90.99
2017-11-10T09:19:24.062Z,90.99
2017-11-10T09:20:23.726Z,90.99
2017-11-10T09:21:24.140Z,90.9
2017-11-10T09:22:24.035Z,91.13
2017-11-10T09:23:24.026Z,90.99
2017-11-10T09:24:24.017Z,90.47
2017-11-10T09:25:24.003Z,90.71
2017-11-10T09:26:23.995Z,90.33
2017-11-10T09:27:23.986Z,90.42
2017-11-10T09:28:23.978Z,90.94
2017-11-10T09:29:23.970Z,91.04
2017-11-10T09:30:23.965Z,90.85
2017-11-10T09:31:23.952Z,90.28
2017-11-10T09:32:23.940Z,90.75
2017-11-10T09:33:23.930Z,90.47
2017-11-10T09:34:23.922Z,90.37
2017-11-10T09:35:23.918Z,90.66
2017-11-10T09:36:23.905Z,90.28
2017-11-10T09:37:23.895Z,89.42
2017-11-10T09:38:23.883Z,89.42
2017-11-10T09:39:23.876Z,90
2017-11-10T09:40:23.902Z,89.9
2017-11-10T09:41:23.535Z,90.09
2017-11-10T09:42:23.846Z,90.28
2017-11-10T09:43:23.834Z,90.28
2017-11-10T09:44:23.826Z,90
2017-11-10T09:45:23.817Z,89.61
2017-11-10T09:46:23.808Z,89.8
2017-11-10T09:47:23.799Z,89.9
2017-11-10T09:48:23.791Z,90
2017-11-10T09:49:23.929Z,90.75
2017-11-10T09:50:23.772Z,90.09
2017-11-10T09:51:23.769Z,90.56
2017-11-10T09:52:23.754Z,91.04
2017-11-10T09:53:23.421Z,90.66
2017-11-10T09:54:23.421Z,90.37
2017-11-10T09:55:23.723Z,90.19
2017-11-10T09:56:23.816Z,90
2017-11-10T09:57:23.706Z,90.66
2017-11-10T09:58:23.717Z,90.28
2017-11-10T09:59:23.687Z,90.85
2017-11-10T10:00:23.678Z,90.47
2017-11-10T10:01:23.671Z,90.47
2017-11-10T10:02:23.338Z,90
2017-11-10T10:03:23.326Z,90.56
2017-11-10T10:04:23.646Z,90.75
2017-11-10T10:05:23.310Z,90.94
2017-11-10T10:06:23.625Z,91.04
2017-11-10T10:07:23.624Z,90.56
2017-11-10T10:08:23.282Z,90.47
2017-11-10T10:09:23.694Z,90.85
2017-11-10T10:10:23.593Z,90.75
2017-11-10T10:11:23.578Z,91.61
2017-11-10T10:12:23.575Z,91.23
2017-11-10T10:13:23.558Z,90.85
2017-11-10T10:14:23.549Z,90.75
2017-11-10T10:15:23.545Z,90.75
2017-11-10T10:16:23.206Z,91.04
2017-11-10T10:17:23.562Z,90.85
2017-11-10T10:18:23.521Z,90.47
2017-11-10T10:19:23.509Z,90.47
2017-11-10T10:20:23.493Z,90.47
2017-11-10T10:21:23.481Z,90.28
2017-11-10T10:22:23.472Z,90.66
2017-11-10T10:23:23.141Z,90.75
2017-11-10T10:24:23.458Z,90.28
2017-11-10T10:25:23.454Z,90.28
2017-11-10T10:26:23.441Z,90.09
2017-11-10T10:27:23.433Z,90.37
2017-11-10T10:28:23.422Z,90.37
2017-11-10T10:29:23.407Z,90.37
2017-11-10T10:30:23.400Z,90.28
2017-11-10T10:31:23.392Z,89.71
2017-11-10T10:32:23.383Z,89.61
2017-11-10T10:33:23.371Z,89.52
2017-11-10T10:34:23.365Z,89.61
2017-11-10T10:35:23.355Z,89.61
2017-11-10T10:36:23.343Z,90
2017-11-10T10:37:23.338Z,90.47
2017-11-10T10:38:23.327Z,90.47
2017-11-10T10:39:23.323Z,90.47
2017-11-10T10:40:23.308Z,90.09
2017-11-10T10:41:23.401Z,90
2017-11-10T10:42:23.286Z,89.9
2017-11-10T10:43:23.284Z,90.09
2017-11-10T10:44:23.280Z,90.09
2017-11-10T10:45:23.266Z,90.09
2017-11-10T10:46:23.253Z,90
2017-11-10T10:47:23.258Z,89.8
2017-11-10T10:48:23.232Z,89.42
2017-11-10T10:49:23.223Z,89.42
2017-11-10T10:50:23.219Z,89.71
2017-11-10T10:51:23.202Z,89.8
2017-11-10T10:52:23.201Z,90.19
2017-11-10T10:53:23.186Z,90.28
2017-11-10T10:54:23.278Z,90
2017-11-10T10:55:22.850Z,89.9
2017-11-10T10:56:23.158Z,89.33
2017-11-10T10:57:23.149Z,89.9
2017-11-10T10:58:23.138Z,89.8
2017-11-10T10:59:23.229Z,89.71
2017-11-10T11:00:23.119Z,90.28
2017-11-10T11:01:23.111Z,90.47
2017-11-10T11:02:23.123Z,90.66
2017-11-10T11:03:23.092Z,90.47
2017-11-10T11:04:23.087Z,90.28
2017-11-10T11:05:22.748Z,90.56
2017-11-10T11:06:22.739Z,90.33
2017-11-10T11:07:23.058Z,90.47
2017-11-10T11:08:23.044Z,91.13
2017-11-10T11:09:22.713Z,90.66
2017-11-10T11:10:23.030Z,90.94
2017-11-10T11:11:22.692Z,90.37
2017-11-10T11:12:22.684Z,90.66
2017-11-10T11:13:22.997Z,90.56
2017-11-10T11:14:22.665Z,90.37
2017-11-10T11:15:22.986Z,90.28
2017-11-10T11:16:22.653Z,90.37
2017-11-10T11:17:22.967Z,90.37
2017-11-10T11:18:22.639Z,90.28
2017-11-10T11:19:22.956Z,90.28
2017-11-10T11:20:23.043Z,90.75
2017-11-10T11:21:22.940Z,90.09
2017-11-10T11:22:22.925Z,90
2017-11-10T11:23:22.914Z,90
2017-11-10T11:24:22.905Z,90.19
2017-11-10T11:25:22.931Z,90.19
2017-11-10T11:26:22.560Z,90
2017-11-10T11:27:22.978Z,90.09
2017-11-10T11:28:22.866Z,89.52
2017-11-10T11:29:22.867Z,90.19
2017-11-10T11:30:22.858Z,89.61
2017-11-10T11:31:22.839Z,89.42
2017-11-10T11:32:22.514Z,89.61
2017-11-10T11:33:22.822Z,89.33
2017-11-10T11:34:22.812Z,89.8
2017-11-10T11:35:22.987Z,89.71
2017-11-10T11:36:22.817Z,89.52
2017-11-10T11:37:22.785Z,89.33
2017-11-10T11:38:22.780Z,89.71
2017-11-10T11:39:22.439Z,89.8
2017-11-10T11:40:22.758Z,89.9
2017-11-10T11:41:22.749Z,89.8
2017-11-10T11:42:22.411Z,89.52
2017-11-10T11:43:22.732Z,89.42
2017-11-10T11:44:22.720Z,89.52
2017-11-10T11:45:22.710Z,89.14
2017-11-10T11:46:22.701Z,89.23
2017-11-10T11:47:22.692Z,89.14
2017-11-10T11:48:22.680Z,89.23
2017-11-10T11:49:22.680Z,89.14
2017-11-10T11:50:22.665Z,88.76
2017-11-10T11:51:22.658Z,89.14
2017-11-10T11:52:22.647Z,89.23
2017-11-10T11:53:22.641Z,89.14
2017-11-10T11:54:22.403Z,89.14
2017-11-10T11:55:22.624Z,89.23
2017-11-10T11:56:22.383Z,89.52
2017-11-10T11:57:22.600Z,89.23
2017-11-10T11:58:22.263Z,89.04
2017-11-10T11:59:22.582Z,89.42
2017-11-10T12:00:22.577Z,89.42
2017-11-10T12:01:22.564Z,89.42
2017-11-10T12:02:22.558Z,89.23
2017-11-10T12:03:22.558Z,88.85
2017-11-10T12:04:22.209Z,89.04
2017-11-10T12:05:22.525Z,89.23
2017-11-10T12:06:22.517Z,88.67
2017-11-10T12:07:22.184Z,89.42
2017-11-10T12:08:22.501Z,89.04
2017-11-10T12:09:22.486Z,89.52
2017-11-10T12:10:22.153Z,89.04
2017-11-10T12:11:22.484Z,89.14
2017-11-10T12:12:22.457Z,88.76
2017-11-10T12:13:22.454Z,88.67
2017-11-10T12:14:22.446Z,88.85
2017-11-10T12:15:22.107Z,88.38
2017-11-10T12:16:22.098Z,88.19
2017-11-10T12:17:22.413Z,88.38
2017-11-10T12:18:22.408Z,88.38
2017-11-10T12:19:22.397Z,88.57
2017-11-10T12:20:22.489Z,88.09
2017-11-10T12:21:22.379Z,88.38
2017-11-10T12:22:22.472Z,88.28
2017-11-10T12:23:22.360Z,88.38
2017-11-10T12:24:22.351Z,88.57
2017-11-10T12:25:22.344Z,88.76
2017-11-10T12:26:22.006Z,88.09
2017-11-10T12:27:22.323Z,88.09
2017-11-10T12:28:22.317Z,88
2017-11-10T12:29:21.983Z,88.38
2017-11-10T12:30:22.308Z,88.38
2017-11-10T12:31:22.284Z,88.38
2017-11-10T12:32:22.278Z,88.28
2017-11-10T12:33:22.264Z,88.67
2017-11-10T12:34:22.259Z,88.19
2017-11-10T12:35:22.246Z,88.95
2017-11-10T12:36:22.239Z,88.57
2017-11-10T12:37:22.224Z,89.33
2017-11-10T12:38:22.231Z,89.23
2017-11-10T12:39:22.310Z,88.47
2017-11-10T12:40:21.876Z,88.38
2017-11-10T12:41:22.352Z,88.95
2017-11-10T12:42:22.182Z,89.04
2017-11-10T12:43:22.178Z,88.85
2017-11-10T12:44:22.161Z,88.28
2017-11-10T12:45:22.153Z,87.9
2017-11-10T12:46:22.155Z,88.47
2017-11-10T12:47:21.822Z,88.28
2017-11-10T12:48:22.129Z,88.19
2017-11-10T12:49:21.790Z,87.9
2017-11-10T12:50:22.114Z,88.38
2017-11-10T12:51:22.100Z,88
2017-11-10T12:52:22.094Z,88.38
2017-11-10T12:53:21.752Z,88.28
2017-11-10T12:54:22.068Z,88.47
2017-11-10T12:55:21.734Z,88.09